»·PEaware :: ASA153 PANC-PAOT

ASA153 :: PANC-PAOT

FLIGHT INFORMATION

Flight Status: Arrived
Operator:
Alaska Airlines
More flights by this operator :: More flights under this callsign
Pilot: Will D. (10979)
Aircraft: BOEING 737-700
(B737)
More flights by this aircraft type
Origin: PANC Stevens Anchorage Intl
United States
Destination: PAOT Wien Meml
United States
More flights between these airports :: More routes between these airports
Route: TED J133 GAL BALIN OTZ
File this flight plan on PilotEdge
Remarks:
Altitude:
(Current/Filed)
40,000ft
Speed:
(Current/Filed)
478kts
Departed: 13-Apr-18 09:29 PM
Arrived: 13-Apr-18 10:56 PM
Distance/Time
Traveled:
475nm/1:27
Distance/Time
To Go:
Arrived

Flight Plot

Page will automatically refresh every two minutes.

Flight plan parsing failed; only flown route is shown


Map Options




Map Legend


Flown Route
Filed Route
Departure Airport
Arrival Airport
Navaid (VOR, NDB)
Fix

Horizontal Profiles

Position Reports

Time Latitude Longitude Heading Altitude Ground
Speed
13-Apr-18 21:17 61.175229 -149.984393 67 160ft 0kts
13-Apr-18 21:18 61.175229 -149.984393 67 160ft 0kts
13-Apr-18 21:19 61.175229 -149.984393 67 160ft 0kts
13-Apr-18 21:20 61.175229 -149.984393 67 160ft 0kts
13-Apr-18 21:21 61.175229 -149.984393 67 160ft 0kts
13-Apr-18 21:22 61.175164 -149.984720 67 160ft 2kts
13-Apr-18 21:23 61.174901 -149.986041 67 160ft 0kts
13-Apr-18 21:24 61.174905 -149.986003 76 160ft 2kts
13-Apr-18 21:25 61.172270 -149.987464 186 160ft 5kts
13-Apr-18 21:26 61.171217 -149.991527 269 160ft 19kts
13-Apr-18 21:27 61.171517 -149.998649 326 160ft 11kts
13-Apr-18 21:28 61.206552 -150.024014 326 2992ft 165kts
13-Apr-18 21:29 61.253096 -150.099212 321 5768ft 256kts
13-Apr-18 21:30 61.312101 -150.196034 322 10322ft 280kts
13-Apr-18 21:31 61.379774 -150.307902 322 13658ft 336kts
13-Apr-18 21:32 61.455303 -150.433661 322 17713ft 357kts
13-Apr-18 21:33 61.535435 -150.566405 323 21322ft 377kts
13-Apr-18 21:34 61.619800 -150.706942 323 24403ft 396kts
13-Apr-18 21:35 61.708057 -150.855523 323 26987ft 414kts
13-Apr-18 21:36 61.799661 -151.011124 324 29170ft 430kts
13-Apr-18 21:37 61.894365 -151.173384 323 30976ft 445kts
13-Apr-18 21:38 61.991449 -151.341140 323 32663ft 452kts
13-Apr-18 21:39 62.088634 -151.510509 322 34451ft 451kts
13-Apr-18 21:40 62.185626 -151.680995 322 36012ft 451kts
13-Apr-18 21:41 62.282446 -151.852647 321 37436ft 451kts
13-Apr-18 21:42 62.378827 -152.025000 321 38712ft 451kts
13-Apr-18 21:43 62.475537 -152.199452 321 39632ft 455kts
13-Apr-18 21:44 62.571729 -152.374491 320 39664ft 449kts
13-Apr-18 21:45 62.667400 -152.550111 320 39692ft 449kts
13-Apr-18 21:46 62.762666 -152.726527 320 39716ft 450kts
13-Apr-18 21:47 62.857865 -152.904381 320 39738ft 449kts
13-Apr-18 21:48 62.952488 -153.082728 320 39761ft 450kts
13-Apr-18 21:49 63.047185 -153.262809 319 39782ft 450kts
13-Apr-18 21:50 63.141565 -153.443897 319 39793ft 449kts
13-Apr-18 21:51 63.235756 -153.626255 319 39799ft 449kts
13-Apr-18 21:52 63.329486 -153.809373 319 39803ft 449kts
13-Apr-18 21:53 63.423256 -153.994205 319 39804ft 448kts
13-Apr-18 21:54 63.516300 -154.179319 318 39806ft 448kts
13-Apr-18 21:55 63.609293 -154.366027 318 39808ft 448kts
13-Apr-18 21:56 63.701746 -154.553363 318 39821ft 448kts
13-Apr-18 21:57 63.794169 -154.742374 318 39824ft 448kts
13-Apr-18 21:58 63.886554 -154.933077 318 39830ft 448kts
13-Apr-18 21:59 63.978271 -155.124183 317 39835ft 448kts
13-Apr-18 22:00 64.069703 -155.316502 317 39840ft 447kts
13-Apr-18 22:01 64.160887 -155.510128 317 39848ft 447kts
13-Apr-18 22:02 64.251876 -155.705204 317 39863ft 447kts
13-Apr-18 22:03 64.342630 -155.901677 317 39867ft 447kts
13-Apr-18 22:04 64.432750 -156.098716 316 39877ft 447kts
13-Apr-18 22:05 64.523210 -156.296661 318 39884ft 447kts
13-Apr-18 22:06 64.613766 -156.495624 316 39891ft 447kts
13-Apr-18 22:07 64.703139 -156.697649 316 39900ft 447kts
13-Apr-18 22:08 64.791268 -156.902469 314 39899ft 447kts
13-Apr-18 22:09 64.878129 -157.110804 314 39901ft 447kts
13-Apr-18 22:10 64.964872 -157.321356 314 39905ft 447kts
13-Apr-18 22:11 65.052157 -157.530984 314 39911ft 447kts
13-Apr-18 22:12 65.138640 -157.741570 314 39915ft 447kts
13-Apr-18 22:13 65.224962 -157.954710 314 39921ft 447kts
13-Apr-18 22:14 65.310844 -158.169183 314 39937ft 445kts
13-Apr-18 22:15 65.396314 -158.384884 313 39956ft 445kts
13-Apr-18 22:16 65.481064 -158.600969 313 39964ft 446kts
13-Apr-18 22:17 65.566002 -158.819758 313 39969ft 446kts
13-Apr-18 22:18 65.650560 -159.039816 313 39973ft 446kts
13-Apr-18 22:19 65.734694 -159.261033 313 39978ft 446kts
13-Apr-18 22:20 65.818340 -159.483249 312 39985ft 446kts
13-Apr-18 22:21 65.901977 -159.707756 312 39992ft 446kts
13-Apr-18 22:22 65.985097 -159.933223 312 39998ft 446kts
13-Apr-18 22:23 66.068050 -160.160622 312 40016ft 446kts
13-Apr-18 22:24 66.150699 -160.389583 312 40016ft 446kts
13-Apr-18 22:25 66.232875 -160.619668 311 40016ft 446kts
13-Apr-18 22:26 66.314345 -160.850216 311 37541ft 445kts
13-Apr-18 22:27 66.396388 -161.082056 311 34256ft 446kts
13-Apr-18 22:28 66.476806 -161.315790 310 31176ft 436kts
13-Apr-18 22:29 66.553839 -161.542207 310 28575ft 417kts
13-Apr-18 22:30 66.627258 -161.759827 310 26017ft 400kts
13-Apr-18 22:31 66.697881 -161.968802 312 23534ft 384kts
13-Apr-18 22:32 66.765866 -162.172103 310 21114ft 370kts
13-Apr-18 22:33 66.830403 -162.369680 310 18776ft 357kts
13-Apr-18 22:34 66.892696 -162.560670 312 16478ft 346kts
13-Apr-18 22:35 66.958613 -162.734671 316 14167ft 335kts
13-Apr-18 22:36 67.022395 -162.902209 314 11864ft 324kts
13-Apr-18 22:37 67.082510 -163.065544 314 10366ft 290kts
13-Apr-18 22:38 67.135176 -163.209795 314 9337ft 272kts
13-Apr-18 22:39 67.149981 -163.374170 223 8111ft 270kts
13-Apr-18 22:40 67.087386 -163.460387 253 8113ft 273kts
13-Apr-18 22:41 67.131058 -163.574162 357 8138ft 261kts
13-Apr-18 22:42 67.191814 -163.578112 9 8118ft 259kts
13-Apr-18 22:43 67.205609 -163.432966 128 8123ft 265kts
13-Apr-18 22:44 67.156661 -163.289201 129 7941ft 270kts
13-Apr-18 22:45 67.107423 -163.147048 130 6078ft 257kts
13-Apr-18 22:46 67.060600 -163.013235 130 4467ft 247kts
13-Apr-18 22:47 67.010747 -162.937394 200 3789ft 197kts
13-Apr-18 22:48 66.967595 -163.005283 203 3110ft 174kts
13-Apr-18 22:49 66.925719 -163.034301 175 2601ft 141kts
13-Apr-18 22:50 66.912027 -162.955297 96 2169ft 127kts
13-Apr-18 22:51 66.906962 -162.868750 97 1758ft 120kts
13-Apr-18 22:52 66.901495 -162.784313 98 1578ft 121kts
13-Apr-18 22:53 66.896735 -162.699011 95 1242ft 121kts
13-Apr-18 22:54 66.889913 -162.613998 102 93ft 120kts
13-Apr-18 22:55 66.887819 -162.588265 281 19ft 27kts
13-Apr-18 22:56 66.890526 -162.598326 290 19ft 16kts
13-Apr-18 22:57 66.890557 -162.598569 283 19ft 0kts

Navigation Log

Ident Type
Flight plan parsing failed, navigation log unavailable